MOL Explorer — 3EKT8 — position and weather

sailwx.info

Track history (hours):
 
Tides and Currents Weather Stations Pressure Air Temp Water Temp Dewpoint Dewpoint Depression Visibility Wind Speed Wind Dir Waves Ship Positions

MOL Explorer

Last reported at 2014-Jul-24 02:33 UTC. Time now 2014-Jul-31 01:23 UTC.
Position N 38°22' W 123°54'.

Length 293 m; draft 11 m.

Type: Ship (hazmat cat A). MMSI: 372827000.

Date/timePositionNaut miles runAvg speedWind from/ knotsBaromVisibWave heightAir tempDewpointWater temp
2014-Jul-24 02:33N 38°22' W 123°54'1717.2
2014-Jul-24 01:33N 38°12' W 123°36'1716.7
2014-Jul-24 00:33N 38°06' W 123°17'1817.7
2014-Jul-23 23:33N 37°55' W 122°60'1717.0
2014-Jul-23 22:33N 37°46' W 122°41'1313.4
2014-Jul-23 21:33N 37°50' W 122°25'4 4.3
2014-Jul-23 20:32N 37°49' W 122°20'0 0.0
2014-Jul-23 19:32N 37°49' W 122°20'0 0.0
2014-Jul-23 18:32N 37°49' W 122°20'0 0.0
2014-Jul-23 17:32N 37°49' W 122°20'0 0.0
2014-Jul-23 16:32N 37°49' W 122°20'0 0.0
2014-Jul-23 15:32N 37°49' W 122°20'0 0.0
2014-Jul-23 14:32N 37°49' W 122°20'0 0.0
2014-Jul-23 13:32N 37°49' W 122°20'0 0.0
2014-Jul-23 12:32N 37°49' W 122°20'0 0.0
2014-Jul-23 11:32N 37°49' W 122°20'0 0.0
2014-Jul-23 10:32N 37°49' W 122°20'0 0.0
2014-Jul-23 09:32N 37°49' W 122°20'0 0.0
2014-Jul-23 08:32N 37°49' W 122°20'0 0.0
2014-Jul-23 07:32N 37°49' W 122°20'0 0.0
2014-Jul-23 06:32N 37°49' W 122°20'0 0.0
2014-Jul-23 05:32N 37°49' W 122°20'0 0.0
2014-Jul-23 04:32N 37°49' W 122°20'0 0.0
2014-Jul-23 03:32N 37°49' W 122°20'0 0.0
2014-Jul-23 02:32N 37°49' W 122°20'0 0.0
2014-Jul-23 01:32N 37°49' W 122°20'0 0.0
2014-Jul-23 00:33N 37°49' W 122°20'8 7.8
2014-Jul-22 23:33N 37°49' W 122°29'1514.9
2014-Jul-22 22:33N 37°41' W 122°46'1312.7
2014-Jul-22 21:33N 37°34' W 122°59'1611.8
2014-Jul-22 20:14N 37°19' W 123°05'2713.5
2014-Jul-22 18:13N 36°52' W 123°03'4 5.4
2014-Jul-22 17:33N 36°55' W 123°01'1 0.9
2014-Jul-22 16:33N 36°54' W 123°02'1 0.7
2014-Jul-22 15:33N 36°54' W 123°02'1 0.6
2014-Jul-22 14:33N 36°53' W 123°03'0 0.3
2014-Jul-22 13:33N 36°53' W 123°03'0 0.0
2014-Jul-22 12:33N 36°53' W 123°03'0 0.2
2014-Jul-22 11:33N 36°53' W 123°03'0 0.2
2014-Jul-22 10:33N 36°53' W 123°03'0 0.3
2014-Jul-22 09:33N 36°53' W 123°04'0 0.3
2014-Jul-22 08:33N 36°53' W 123°04'0 0.4
2014-Jul-22 07:33N 36°53' W 123°05'0 0.3
2014-Jul-22 06:33N 36°53' W 123°05'0 0.3
2014-Jul-22 05:33N 36°53' W 123°05'0 0.3
2014-Jul-22 04:33N 36°53' W 123°06'0 0.4
2014-Jul-22 03:33N 36°53' W 123°06'1 0.5
2014-Jul-22 02:33N 36°52' W 123°06'1 0.6
2014-Jul-22 01:27N 36°52' W 123°07'1 0.5
2014-Jul-22 00:13N 36°51' W 123°07'0 0.5
2014-Jul-21 23:33N 36°51' W 123°07'0 0.4
2014-Jul-21 22:33N 36°50' W 123°07'0 0.4
2014-Jul-21 21:33N 36°50' W 123°07'1 0.6
2014-Jul-21 20:32N 36°50' W 123°08'0 0.7
2014-Jul-21 20:17N 36°49' W 123°08'1 0.8
2014-Jul-21 19:33N 36°49' W 123°09'1 0.8
2014-Jul-21 18:33N 36°49' W 123°09'1 0.8
2014-Jul-21 17:33N 36°48' W 123°10'1 0.7
2014-Jul-21 16:32N 36°47' W 123°11'1 0.6
2014-Jul-21 15:33N 36°47' W 123°11'0 0.5
2014-Jul-21 14:33N 36°47' W 123°12'4 4.1
2014-Jul-21 13:33N 36°44' W 123°08'1414.0
2014-Jul-21 12:33N 36°33' W 122°57'1414.0
2014-Jul-21 11:32N 36°22' W 122°46'1414.0
2014-Jul-21 10:33N 36°11' W 122°36'1413.5
2014-Jul-21 09:33N 36°00' W 122°25'1413.7
2014-Jul-21 08:33N 35°50' W 122°15'1413.8
2014-Jul-21 07:33N 35°39' W 122°04'1413.7
2014-Jul-21 06:32N 35°28' W 121°53'1413.4
2014-Jul-21 05:29N 35°17' W 121°42'1413.8
2014-Jul-21 04:28N 35°06' W 121°31'8612.4
2014-Jul-20 21:30N 34°16' W 120°06'1112.1
2014-Jul-20 20:33N 34°13' W 119°53'1212.1
2014-Jul-20 19:33N 34°09' W 119°39'1212.1
2014-Jul-20 18:33N 34°06' W 119°24'1211.6
2014-Jul-20 17:33N 34°02' W 119°11'2411.6
2014-Jul-20 15:28N 33°51' W 118°46'1411.7
2014-Jul-20 14:15N 33°43' W 118°31'911.8
2014-Jul-20 13:28N 33°39' W 118°21'9 9.4
2014-Jul-20 12:30N 33°42' W 118°11'3 0.2
2014-Jul-20 02:12N 33°45' W 118°12'0 0.0
2014-Jul-19 21:27N 33°45' W 118°12'0 0.0
2014-Jul-19 20:33N 33°45' W 118°12'0 0.0
2014-Jul-19 18:33N 33°45' W 118°12'0 0.0
2014-Jul-19 17:30N 33°45' W 118°12'0 0.0
2014-Jul-19 15:33N 33°45' W 118°12'0 0.0
2014-Jul-19 14:33N 33°45' W 118°12'0 0.0
2014-Jul-19 10:18N 33°45' W 118°12'0 0.0
2014-Jul-19 02:27N 33°45' W 118°12'0 0.0
2014-Jul-18 19:24N 33°45' W 118°12'0 0.0
2014-Jul-18 03:12N 33°45' W 118°12'0 0.0
2014-Jul-18 02:33N 33°45' W 118°12'0 0.0
2014-Jul-17 05:33N 33°45' W 118°12'0 0.0
2014-Jul-17 03:24N 33°45' W 118°12'0 0.0
2014-Jul-17 02:06N 33°45' W 118°12'0 0.0
2014-Jul-16 23:21N 33°45' W 118°12'1 1.5
2014-Jul-16 22:34N 33°44' W 118°12'9 8.6
2014-Jul-16 21:33N 33°36' W 118°17'1511.7
2014-Jul-16 20:14N 33°42' W 118°34'811.9
2014-Jul-16 19:34N 33°46' W 118°42'1211.9
2014-Jul-16 18:33N 33°52' W 118°54'1613.1
2014-Jul-16 17:18N 34°00' W 119°12'1114.3
2014-Jul-16 16:33N 34°04' W 119°24'1414.2
2014-Jul-16 15:34N 34°07' W 119°40'1414.1
2014-Jul-16 14:34N 34°11' W 119°57'1414.3
2014-Jul-16 13:33N 34°15' W 120°13'5713.7
2014-Jul-16 09:25N 34°37' W 121°17'1315.1
2014-Jul-16 08:33N 34°43' W 121°31'1515.5
2014-Jul-16 07:33N 34°51' W 121°47'1615.7
2014-Jul-16 06:33N 34°59' W 122°03'1615.5
2014-Jul-16 05:33N 35°07' W 122°20'1615.8
2014-Jul-16 04:33N 35°15' W 122°36'1615.5
2014-Jul-16 03:33N 35°23' W 122°53'1616.2
2014-Jul-16 02:33N 35°31' W 123°10'1616.5
2014-Jul-16 01:33N 35°40' W 123°27'1716.5
2014-Jul-16 00:33N 35°48' W 123°44'1616.6
2014-Jul-15 23:33N 35°57' W 124°02'1716.3
2014-Jul-15 22:29N 36°06' W 124°20'1816.0
2014-Jul-15 21:21N 36°15' W 124°39'1315.8
2014-Jul-15 20:31N 36°22' W 124°54'  
Track history (hours):
 
Tides and Currents Weather Stations Pressure Air Temp Water Temp Dewpoint Dewpoint Depression Visibility Wind Speed Wind Dir Waves Ship Positions

MOL Explorer

Last reported at 2014-Jul-24 02:33 UTC. Time now 2014-Jul-31 01:23 UTC.
Position N 38°22' W 123°54'.

Length 293 m; draft 11 m.

Type: Ship (hazmat cat A). MMSI: 372827000.

Date/timePositionNaut miles runAvg speedWind from/ knotsBaromVisibWave heightAir tempDewpointWater temp
2014-Jul-24 02:33N 38°22' W 123°54'1717.2
2014-Jul-24 01:33N 38°12' W 123°36'1716.7
2014-Jul-24 00:33N 38°06' W 123°17'1817.7
2014-Jul-23 23:33N 37°55' W 122°60'1717.0
2014-Jul-23 22:33N 37°46' W 122°41'1313.4
2014-Jul-23 21:33N 37°50' W 122°25'4 4.3
2014-Jul-23 20:32N 37°49' W 122°20'0 0.0
2014-Jul-23 19:32N 37°49' W 122°20'0 0.0
2014-Jul-23 18:32N 37°49' W 122°20'0 0.0
2014-Jul-23 17:32N 37°49' W 122°20'0 0.0
2014-Jul-23 16:32N 37°49' W 122°20'0 0.0
2014-Jul-23 15:32N 37°49' W 122°20'0 0.0
2014-Jul-23 14:32N 37°49' W 122°20'0 0.0
2014-Jul-23 13:32N 37°49' W 122°20'0 0.0
2014-Jul-23 12:32N 37°49' W 122°20'0 0.0
2014-Jul-23 11:32N 37°49' W 122°20'0 0.0
2014-Jul-23 10:32N 37°49' W 122°20'0 0.0
2014-Jul-23 09:32N 37°49' W 122°20'0 0.0
2014-Jul-23 08:32N 37°49' W 122°20'0 0.0
2014-Jul-23 07:32N 37°49' W 122°20'0 0.0
2014-Jul-23 06:32N 37°49' W 122°20'0 0.0
2014-Jul-23 05:32N 37°49' W 122°20'0 0.0
2014-Jul-23 04:32N 37°49' W 122°20'0 0.0
2014-Jul-23 03:32N 37°49' W 122°20'0 0.0
2014-Jul-23 02:32N 37°49' W 122°20'0 0.0
2014-Jul-23 01:32N 37°49' W 122°20'0 0.0
2014-Jul-23 00:33N 37°49' W 122°20'8 7.8
2014-Jul-22 23:33N 37°49' W 122°29'1514.9
2014-Jul-22 22:33N 37°41' W 122°46'1312.7
2014-Jul-22 21:33N 37°34' W 122°59'1611.8
2014-Jul-22 20:14N 37°19' W 123°05'2713.5
2014-Jul-22 18:13N 36°52' W 123°03'4 5.4
2014-Jul-22 17:33N 36°55' W 123°01'1 0.9
2014-Jul-22 16:33N 36°54' W 123°02'1 0.7
2014-Jul-22 15:33N 36°54' W 123°02'1 0.6
2014-Jul-22 14:33N 36°53' W 123°03'0 0.3
2014-Jul-22 13:33N 36°53' W 123°03'0 0.0
2014-Jul-22 12:33N 36°53' W 123°03'0 0.2
2014-Jul-22 11:33N 36°53' W 123°03'0 0.2
2014-Jul-22 10:33N 36°53' W 123°03'0 0.3
2014-Jul-22 09:33N 36°53' W 123°04'0 0.3
2014-Jul-22 08:33N 36°53' W 123°04'0 0.4
2014-Jul-22 07:33N 36°53' W 123°05'0 0.3
2014-Jul-22 06:33N 36°53' W 123°05'0 0.3
2014-Jul-22 05:33N 36°53' W 123°05'0 0.3
2014-Jul-22 04:33N 36°53' W 123°06'0 0.4
2014-Jul-22 03:33N 36°53' W 123°06'1 0.5
2014-Jul-22 02:33N 36°52' W 123°06'1 0.6
2014-Jul-22 01:27N 36°52' W 123°07'1 0.5
2014-Jul-22 00:13N 36°51' W 123°07'0 0.5
2014-Jul-21 23:33N 36°51' W 123°07'0 0.4
2014-Jul-21 22:33N 36°50' W 123°07'0 0.4
2014-Jul-21 21:33N 36°50' W 123°07'1 0.6
2014-Jul-21 20:32N 36°50' W 123°08'0 0.7
2014-Jul-21 20:17N 36°49' W 123°08'1 0.8
2014-Jul-21 19:33N 36°49' W 123°09'1 0.8
2014-Jul-21 18:33N 36°49' W 123°09'1 0.8
2014-Jul-21 17:33N 36°48' W 123°10'1 0.7
2014-Jul-21 16:32N 36°47' W 123°11'1 0.6
2014-Jul-21 15:33N 36°47' W 123°11'0 0.5
2014-Jul-21 14:33N 36°47' W 123°12'4 4.1
2014-Jul-21 13:33N 36°44' W 123°08'1414.0
2014-Jul-21 12:33N 36°33' W 122°57'1414.0
2014-Jul-21 11:32N 36°22' W 122°46'1414.0
2014-Jul-21 10:33N 36°11' W 122°36'1413.5
2014-Jul-21 09:33N 36°00' W 122°25'1413.7
2014-Jul-21 08:33N 35°50' W 122°15'1413.8
2014-Jul-21 07:33N 35°39' W 122°04'1413.7
2014-Jul-21 06:32N 35°28' W 121°53'1413.4
2014-Jul-21 05:29N 35°17' W 121°42'1413.8
2014-Jul-21 04:28N 35°06' W 121°31'8612.4
2014-Jul-20 21:30N 34°16' W 120°06'1112.1
2014-Jul-20 20:33N 34°13' W 119°53'1212.1
2014-Jul-20 19:33N 34°09' W 119°39'1212.1
2014-Jul-20 18:33N 34°06' W 119°24'1211.6
2014-Jul-20 17:33N 34°02' W 119°11'2411.6
2014-Jul-20 15:28N 33°51' W 118°46'1411.7
2014-Jul-20 14:15N 33°43' W 118°31'911.8
2014-Jul-20 13:28N 33°39' W 118°21'9 9.4
2014-Jul-20 12:30N 33°42' W 118°11'3 0.2
2014-Jul-20 02:12N 33°45' W 118°12'0 0.0
2014-Jul-19 21:27N 33°45' W 118°12'0 0.0
2014-Jul-19 20:33N 33°45' W 118°12'0 0.0
2014-Jul-19 18:33N 33°45' W 118°12'0 0.0
2014-Jul-19 17:30N 33°45' W 118°12'0 0.0
2014-Jul-19 15:33N 33°45' W 118°12'0 0.0
2014-Jul-19 14:33N 33°45' W 118°12'0 0.0
2014-Jul-19 10:18N 33°45' W 118°12'0 0.0
2014-Jul-19 02:27N 33°45' W 118°12'0 0.0
2014-Jul-18 19:24N 33°45' W 118°12'0 0.0
2014-Jul-18 03:12N 33°45' W 118°12'0 0.0
2014-Jul-18 02:33N 33°45' W 118°12'0 0.0
2014-Jul-17 05:33N 33°45' W 118°12'0 0.0
2014-Jul-17 03:24N 33°45' W 118°12'0 0.0
2014-Jul-17 02:06N 33°45' W 118°12'0 0.0
2014-Jul-16 23:21N 33°45' W 118°12'1 1.5
2014-Jul-16 22:34N 33°44' W 118°12'9 8.6
2014-Jul-16 21:33N 33°36' W 118°17'1511.7
2014-Jul-16 20:14N 33°42' W 118°34'811.9
2014-Jul-16 19:34N 33°46' W 118°42'1211.9
2014-Jul-16 18:33N 33°52' W 118°54'1613.1
2014-Jul-16 17:18N 34°00' W 119°12'1114.3
2014-Jul-16 16:33N 34°04' W 119°24'1414.2
2014-Jul-16 15:34N 34°07' W 119°40'1414.1
2014-Jul-16 14:34N 34°11' W 119°57'1414.3
2014-Jul-16 13:33N 34°15' W 120°13'5713.7
2014-Jul-16 09:25N 34°37' W 121°17'1315.1
2014-Jul-16 08:33N 34°43' W 121°31'1515.5
2014-Jul-16 07:33N 34°51' W 121°47'1615.7
2014-Jul-16 06:33N 34°59' W 122°03'1615.5
2014-Jul-16 05:33N 35°07' W 122°20'1615.8
2014-Jul-16 04:33N 35°15' W 122°36'1615.5
2014-Jul-16 03:33N 35°23' W 122°53'1616.2
2014-Jul-16 02:33N 35°31' W 123°10'1616.5
2014-Jul-16 01:33N 35°40' W 123°27'1716.5
2014-Jul-16 00:33N 35°48' W 123°44'1616.6
2014-Jul-15 23:33N 35°57' W 124°02'1716.3
2014-Jul-15 22:29N 36°06' W 124°20'1816.0
2014-Jul-15 21:21N 36°15' W 124°39'1315.8
2014-Jul-15 20:31N 36°22' W 124°54'  

Dump ship's entire track history